sensor_id;sensor_type;location;lat;lon;timestamp;temperature;humidity
24252;DHT22;12380;51.118;4.176;2023-04-25T00:01:46;9.00;99.90
24252;DHT22;12380;51.118;4.176;2023-04-25T00:04:11;9.10;99.90
24252;DHT22;12380;51.118;4.176;2023-04-25T00:06:38;9.10;99.90
24252;DHT22;12380;51.118;4.176;2023-04-25T00:09:04;9.20;99.90
24252;DHT22;12380;51.118;4.176;2023-04-25T00:11:35;9.20;99.90
24252;DHT22;12380;51.118;4.176;2023-04-25T00:14:00;9.20;99.90
24252;DHT22;12380;51.118;4.176;2023-04-25T00:16:28;9.10;99.90
24252;DHT22;12380;51.118;4.176;2023-04-25T00:18:54;9.10;99.90
24252;DHT22;12380;51.118;4.176;2023-04-25T00:21:20;9.00;99.90
24252;DHT22;12380;51.118;4.176;2023-04-25T00:23:45;9.20;99.90
24252;DHT22;12380;51.118;4.176;2023-04-25T00:26:11;9.20;99.90
24252;DHT22;12380;51.118;4.176;2023-04-25T00:28:37;9.10;99.90
24252;DHT22;12380;51.118;4.176;2023-04-25T00:31:03;9.10;99.90
24252;DHT22;12380;51.118;4.176;2023-04-25T00:33:28;9.20;99.90
24252;DHT22;12380;51.118;4.176;2023-04-25T00:35:55;9.20;99.90
24252;DHT22;12380;51.118;4.176;2023-04-25T00:38:21;9.00;99.90
24252;DHT22;12380;51.118;4.176;2023-04-25T00:40:47;9.00;99.90
24252;DHT22;12380;51.118;4.176;2023-04-25T00:43:12;9.10;99.90
24252;DHT22;12380;51.118;4.176;2023-04-25T00:45:38;9.10;99.90
24252;DHT22;12380;51.118;4.176;2023-04-25T00:48:04;9.00;99.90
24252;DHT22;12380;51.118;4.176;2023-04-25T00:50:30;9.00;99.90
24252;DHT22;12380;51.118;4.176;2023-04-25T00:52:55;9.00;99.90
24252;DHT22;12380;51.118;4.176;2023-04-25T00:55:21;8.90;99.90
24252;DHT22;12380;51.118;4.176;2023-04-25T00:57:47;8.90;99.90
24252;DHT22;12380;51.118;4.176;2023-04-25T01:00:13;9.00;99.90
24252;DHT22;12380;51.118;4.176;2023-04-25T01:02:42;9.10;99.90
24252;DHT22;12380;51.118;4.176;2023-04-25T01:05:08;9.20;99.90
24252;DHT22;12380;51.118;4.176;2023-04-25T01:07:34;9.00;99.90
24252;DHT22;12380;51.118;4.176;2023-04-25T01:10:00;9.10;99.90
24252;DHT22;12380;51.118;4.176;2023-04-25T01:12:26;9.10;99.90
24252;DHT22;12380;51.118;4.176;2023-04-25T01:14:54;9.00;99.90
24252;DHT22;12380;51.118;4.176;2023-04-25T01:17:20;9.10;99.90
24252;DHT22;12380;51.118;4.176;2023-04-25T01:19:46;8.90;99.90
24252;DHT22;12380;51.118;4.176;2023-04-25T01:22:13;8.70;99.90
24252;DHT22;12380;51.118;4.176;2023-04-25T01:24:39;8.70;99.90
24252;DHT22;12380;51.118;4.176;2023-04-25T01:27:05;8.70;99.90
24252;DHT22;12380;51.118;4.176;2023-04-25T01:29:31;8.60;99.90
24252;DHT22;12380;51.118;4.176;2023-04-25T01:31:57;8.50;99.90
24252;DHT22;12380;51.118;4.176;2023-04-25T01:34:24;8.60;99.90
24252;DHT22;12380;51.118;4.176;2023-04-25T01:36:49;8.60;99.90
24252;DHT22;12380;51.118;4.176;2023-04-25T01:39:17;8.70;99.90
24252;DHT22;12380;51.118;4.176;2023-04-25T01:41:44;8.80;99.90
24252;DHT22;12380;51.118;4.176;2023-04-25T01:44:09;8.60;99.90
24252;DHT22;12380;51.118;4.176;2023-04-25T01:46:35;8.60;99.90
24252;DHT22;12380;51.118;4.176;2023-04-25T01:49:01;8.60;99.90
24252;DHT22;12380;51.118;4.176;2023-04-25T01:51:26;8.60;99.90
24252;DHT22;12380;51.118;4.176;2023-04-25T01:53:52;8.50;99.90
24252;DHT22;12380;51.118;4.176;2023-04-25T01:56:18;8.50;99.90
24252;DHT22;12380;51.118;4.176;2023-04-25T01:58:43;8.50;99.90
24252;DHT22;12380;51.118;4.176;2023-04-25T02:01:09;8.30;99.90
24252;DHT22;12380;51.118;4.176;2023-04-25T02:03:35;8.30;99.90
24252;DHT22;12380;51.118;4.176;2023-04-25T02:06:01;8.20;99.90
24252;DHT22;12380;51.118;4.176;2023-04-25T02:08:26;8.30;99.90
24252;DHT22;12380;51.118;4.176;2023-04-25T02:10:52;8.40;99.90
24252;DHT22;12380;51.118;4.176;2023-04-25T02:13:17;8.40;99.90
24252;DHT22;12380;51.118;4.176;2023-04-25T02:15:46;8.40;99.90
24252;DHT22;12380;51.118;4.176;2023-04-25T02:18:11;8.30;99.90
24252;DHT22;12380;51.118;4.176;2023-04-25T02:20:37;8.40;99.90
24252;DHT22;12380;51.118;4.176;2023-04-25T02:23:03;8.50;99.90
24252;DHT22;12380;51.118;4.176;2023-04-25T02:25:28;8.40;99.90
24252;DHT22;12380;51.118;4.176;2023-04-25T02:27:56;8.30;99.90
24252;DHT22;12380;51.118;4.176;2023-04-25T02:30:22;8.40;99.90
24252;DHT22;12380;51.118;4.176;2023-04-25T02:32:47;8.30;99.90
24252;DHT22;12380;51.118;4.176;2023-04-25T02:35:13;8.30;99.90
24252;DHT22;12380;51.118;4.176;2023-04-25T02:37:41;8.30;99.90
24252;DHT22;12380;51.118;4.176;2023-04-25T02:40:07;8.30;99.90
24252;DHT22;12380;51.118;4.176;2023-04-25T02:42:33;8.40;99.90
24252;DHT22;12380;51.118;4.176;2023-04-25T02:44:58;8.40;99.90
24252;DHT22;12380;51.118;4.176;2023-04-25T02:47:24;8.50;99.90
24252;DHT22;12380;51.118;4.176;2023-04-25T02:49:50;8.40;99.90
24252;DHT22;12380;51.118;4.176;2023-04-25T02:52:15;8.40;99.90
24252;DHT22;12380;51.118;4.176;2023-04-25T02:54:41;8.40;99.90
24252;DHT22;12380;51.118;4.176;2023-04-25T02:57:07;8.40;99.90
24252;DHT22;12380;51.118;4.176;2023-04-25T02:59:35;8.40;99.90
24252;DHT22;12380;51.118;4.176;2023-04-25T03:02:03;8.30;99.90
24252;DHT22;12380;51.118;4.176;2023-04-25T03:04:28;8.50;99.90
24252;DHT22;12380;51.118;4.176;2023-04-25T03:06:54;8.50;99.90
24252;DHT22;12380;51.118;4.176;2023-04-25T03:09:20;8.50;99.90
24252;DHT22;12380;51.118;4.176;2023-04-25T03:11:48;8.50;99.90
24252;DHT22;12380;51.118;4.176;2023-04-25T03:14:13;8.50;99.90
24252;DHT22;12380;51.118;4.176;2023-04-25T03:16:42;8.40;99.90
24252;DHT22;12380;51.118;4.176;2023-04-25T03:19:07;8.50;99.90
24252;DHT22;12380;51.118;4.176;2023-04-25T03:21:33;8.40;99.90
24252;DHT22;12380;51.118;4.176;2023-04-25T03:24:00;8.50;99.90
24252;DHT22;12380;51.118;4.176;2023-04-25T03:26:25;8.40;99.90
24252;DHT22;12380;51.118;4.176;2023-04-25T03:28:51;8.30;99.90
24252;DHT22;12380;51.118;4.176;2023-04-25T03:31:16;8.30;99.90
24252;DHT22;12380;51.118;4.176;2023-04-25T03:33:42;8.20;99.90
24252;DHT22;12380;51.118;4.176;2023-04-25T03:36:08;8.20;99.90
24252;DHT22;12380;51.118;4.176;2023-04-25T03:38:33;8.10;99.90
24252;DHT22;12380;51.118;4.176;2023-04-25T03:41:00;7.90;99.90
24252;DHT22;12380;51.118;4.176;2023-04-25T03:43:26;8.00;99.90
24252;DHT22;12380;51.118;4.176;2023-04-25T03:45:51;7.80;99.90
24252;DHT22;12380;51.118;4.176;2023-04-25T03:48:17;7.70;99.90
24252;DHT22;12380;51.118;4.176;2023-04-25T03:50:42;7.70;99.90
24252;DHT22;12380;51.118;4.176;2023-04-25T03:53:08;7.40;99.90
24252;DHT22;12380;51.118;4.176;2023-04-25T03:55:33;7.40;99.90
24252;DHT22;12380;51.118;4.176;2023-04-25T03:57:59;7.50;99.90
24252;DHT22;12380;51.118;4.176;2023-04-25T04:00:25;7.50;99.90
24252;DHT22;12380;51.118;4.176;2023-04-25T04:02:50;7.50;99.90
24252;DHT22;12380;51.118;4.176;2023-04-25T04:05:18;7.40;99.90
24252;DHT22;12380;51.118;4.176;2023-04-25T04:07:44;7.50;99.90
24252;DHT22;12380;51.118;4.176;2023-04-25T04:10:10;7.30;99.90
24252;DHT22;12380;51.118;4.176;2023-04-25T04:12:35;7.50;99.90
24252;DHT22;12380;51.118;4.176;2023-04-25T04:15:02;7.50;99.90
24252;DHT22;12380;51.118;4.176;2023-04-25T04:17:29;7.60;99.90
24252;DHT22;12380;51.118;4.176;2023-04-25T04:19:54;7.70;99.90
24252;DHT22;12380;51.118;4.176;2023-04-25T04:22:22;7.60;99.90
24252;DHT22;12380;51.118;4.176;2023-04-25T04:24:48;7.50;99.90
24252;DHT22;12380;51.118;4.176;2023-04-25T04:27:15;7.50;99.90
24252;DHT22;12380;51.118;4.176;2023-04-25T04:29:42;7.60;99.90
24252;DHT22;12380;51.118;4.176;2023-04-25T04:32:08;7.60;99.90
24252;DHT22;12380;51.118;4.176;2023-04-25T04:34:36;7.60;99.90
24252;DHT22;12380;51.118;4.176;2023-04-25T04:37:01;7.60;99.90
24252;DHT22;12380;51.118;4.176;2023-04-25T04:39:27;7.50;99.90
24252;DHT22;12380;51.118;4.176;2023-04-25T04:41:54;7.60;99.90
24252;DHT22;12380;51.118;4.176;2023-04-25T04:44:22;7.80;99.90
24252;DHT22;12380;51.118;4.176;2023-04-25T04:46:48;7.70;99.90
24252;DHT22;12380;51.118;4.176;2023-04-25T04:49:16;7.70;99.90
24252;DHT22;12380;51.118;4.176;2023-04-25T04:51:42;7.80;99.90
24252;DHT22;12380;51.118;4.176;2023-04-25T04:54:10;7.70;99.90
24252;DHT22;12380;51.118;4.176;2023-04-25T04:56:36;7.80;99.90
24252;DHT22;12380;51.118;4.176;2023-04-25T04:59:03;7.80;99.90
24252;DHT22;12380;51.118;4.176;2023-04-25T05:01:32;7.90;99.90
24252;DHT22;12380;51.118;4.176;2023-04-25T05:04:01;7.90;99.90
24252;DHT22;12380;51.118;4.176;2023-04-25T05:06:29;7.90;99.90
24252;DHT22;12380;51.118;4.176;2023-04-25T05:08:55;8.00;99.90
24252;DHT22;12380;51.118;4.176;2023-04-25T05:11:21;8.00;99.90
24252;DHT22;12380;51.118;4.176;2023-04-25T05:13:46;8.00;99.90
24252;DHT22;12380;51.118;4.176;2023-04-25T05:16:14;8.00;99.90
24252;DHT22;12380;51.118;4.176;2023-04-25T05:18:40;7.90;99.90
24252;DHT22;12380;51.118;4.176;2023-04-25T05:21:06;7.90;99.90
24252;DHT22;12380;51.118;4.176;2023-04-25T05:23:34;7.80;99.90
24252;DHT22;12380;51.118;4.176;2023-04-25T05:26:00;7.80;99.90
24252;DHT22;12380;51.118;4.176;2023-04-25T05:28:26;7.70;99.90
24252;DHT22;12380;51.118;4.176;2023-04-25T05:30:51;7.60;99.90
24252;DHT22;12380;51.118;4.176;2023-04-25T05:33:17;7.80;99.90
24252;DHT22;12380;51.118;4.176;2023-04-25T05:35:43;7.90;99.90
24252;DHT22;12380;51.118;4.176;2023-04-25T05:38:11;8.00;99.90
24252;DHT22;12380;51.118;4.176;2023-04-25T05:40:39;8.00;99.90
24252;DHT22;12380;51.118;4.176;2023-04-25T05:43:07;8.00;99.90
24252;DHT22;12380;51.118;4.176;2023-04-25T05:45:32;8.00;99.90
24252;DHT22;12380;51.118;4.176;2023-04-25T05:47:58;8.10;99.90
24252;DHT22;12380;51.118;4.176;2023-04-25T05:50:23;8.30;99.90
24252;DHT22;12380;51.118;4.176;2023-04-25T05:52:49;8.50;99.90
24252;DHT22;12380;51.118;4.176;2023-04-25T05:55:15;8.60;99.90
24252;DHT22;12380;51.118;4.176;2023-04-25T05:57:40;8.70;99.90
24252;DHT22;12380;51.118;4.176;2023-04-25T06:00:11;8.70;99.90
24252;DHT22;12380;51.118;4.176;2023-04-25T06:02:41;8.60;99.90
24252;DHT22;12380;51.118;4.176;2023-04-25T06:05:07;8.40;99.90
24252;DHT22;12380;51.118;4.176;2023-04-25T06:07:33;8.60;99.90
24252;DHT22;12380;51.118;4.176;2023-04-25T06:09:58;8.70;99.90
24252;DHT22;12380;51.118;4.176;2023-04-25T06:12:25;8.90;99.90
24252;DHT22;12380;51.118;4.176;2023-04-25T06:14:51;8.80;99.90
24252;DHT22;12380;51.118;4.176;2023-04-25T06:17:16;8.90;99.90
24252;DHT22;12380;51.118;4.176;2023-04-25T06:19:42;8.90;99.90
24252;DHT22;12380;51.118;4.176;2023-04-25T06:22:07;9.00;99.90
24252;DHT22;12380;51.118;4.176;2023-04-25T06:24:33;9.00;99.90
24252;DHT22;12380;51.118;4.176;2023-04-25T06:26:59;9.00;99.90
24252;DHT22;12380;51.118;4.176;2023-04-25T06:29:25;8.90;99.90
24252;DHT22;12380;51.118;4.176;2023-04-25T06:31:53;9.00;99.90
24252;DHT22;12380;51.118;4.176;2023-04-25T06:34:19;9.00;99.90
24252;DHT22;12380;51.118;4.176;2023-04-25T06:36:47;8.90;99.90
24252;DHT22;12380;51.118;4.176;2023-04-25T06:39:13;9.20;99.90
24252;DHT22;12380;51.118;4.176;2023-04-25T06:41:38;9.30;99.90
24252;DHT22;12380;51.118;4.176;2023-04-25T06:44:04;9.30;99.90
24252;DHT22;12380;51.118;4.176;2023-04-25T06:46:30;9.20;99.90
24252;DHT22;12380;51.118;4.176;2023-04-25T06:48:55;9.00;99.90
24252;DHT22;12380;51.118;4.176;2023-04-25T06:51:21;9.00;99.90
24252;DHT22;12380;51.118;4.176;2023-04-25T06:53:46;9.20;99.90
24252;DHT22;12380;51.118;4.176;2023-04-25T06:56:13;9.10;99.90
24252;DHT22;12380;51.118;4.176;2023-04-25T06:58:39;9.10;99.90
24252;DHT22;12380;51.118;4.176;2023-04-25T07:01:05;9.20;99.90
24252;DHT22;12380;51.118;4.176;2023-04-25T07:03:33;9.40;99.90
24252;DHT22;12380;51.118;4.176;2023-04-25T07:05:58;9.40;99.90
24252;DHT22;12380;51.118;4.176;2023-04-25T07:08:24;9.40;99.90
24252;DHT22;12380;51.118;4.176;2023-04-25T07:10:50;9.70;99.90
24252;DHT22;12380;51.118;4.176;2023-04-25T07:13:15;9.90;99.90
24252;DHT22;12380;51.118;4.176;2023-04-25T07:15:43;10.00;99.90
24252;DHT22;12380;51.118;4.176;2023-04-25T07:18:09;10.20;99.90
24252;DHT22;12380;51.118;4.176;2023-04-25T07:20:34;10.50;99.90
24252;DHT22;12380;51.118;4.176;2023-04-25T07:23:00;10.20;99.90
24252;DHT22;12380;51.118;4.176;2023-04-25T07:25:27;10.30;99.90
24252;DHT22;12380;51.118;4.176;2023-04-25T07:27:52;10.50;99.90
24252;DHT22;12380;51.118;4.176;2023-04-25T07:30:18;10.80;99.90
24252;DHT22;12380;51.118;4.176;2023-04-25T07:32:43;11.50;99.90
24252;DHT22;12380;51.118;4.176;2023-04-25T07:35:10;12.30;99.90
24252;DHT22;12380;51.118;4.176;2023-04-25T07:37:36;12.50;99.90
24252;DHT22;12380;51.118;4.176;2023-04-25T07:40:02;13.40;99.90
24252;DHT22;12380;51.118;4.176;2023-04-25T07:42:29;13.40;99.90
24252;DHT22;12380;51.118;4.176;2023-04-25T07:44:57;14.00;99.90
24252;DHT22;12380;51.118;4.176;2023-04-25T07:47:22;13.90;99.90
24252;DHT22;12380;51.118;4.176;2023-04-25T07:49:48;14.50;99.90
24252;DHT22;12380;51.118;4.176;2023-04-25T07:52:14;13.70;99.90
24252;DHT22;12380;51.118;4.176;2023-04-25T07:54:39;12.90;99.90
24252;DHT22;12380;51.118;4.176;2023-04-25T07:57:05;13.30;99.90
24252;DHT22;12380;51.118;4.176;2023-04-25T07:59:33;13.90;99.90
24252;DHT22;12380;51.118;4.176;2023-04-25T08:02:01;13.80;99.90
24252;DHT22;12380;51.118;4.176;2023-04-25T08:04:27;13.40;99.90
24252;DHT22;12380;51.118;4.176;2023-04-25T08:06:53;12.70;99.90
24252;DHT22;12380;51.118;4.176;2023-04-25T08:09:19;12.10;99.90
24252;DHT22;12380;51.118;4.176;2023-04-25T08:11:45;12.00;99.90
24252;DHT22;12380;51.118;4.176;2023-04-25T08:14:11;12.00;99.90
24252;DHT22;12380;51.118;4.176;2023-04-25T08:16:37;11.20;99.90
24252;DHT22;12380;51.118;4.176;2023-04-25T08:19:02;10.90;99.90
24252;DHT22;12380;51.118;4.176;2023-04-25T08:21:30;10.40;99.90
24252;DHT22;12380;51.118;4.176;2023-04-25T08:23:56;10.20;99.90
24252;DHT22;12380;51.118;4.176;2023-04-25T08:26:26;9.80;99.90
24252;DHT22;12380;51.118;4.176;2023-04-25T08:28:51;9.60;99.90
24252;DHT22;12380;51.118;4.176;2023-04-25T08:31:19;9.60;99.90
24252;DHT22;12380;51.118;4.176;2023-04-25T08:33:45;9.50;99.90
24252;DHT22;12380;51.118;4.176;2023-04-25T08:36:11;9.50;99.90
24252;DHT22;12380;51.118;4.176;2023-04-25T08:38:36;9.50;99.90
24252;DHT22;12380;51.118;4.176;2023-04-25T08:41:02;9.60;99.90
24252;DHT22;12380;51.118;4.176;2023-04-25T08:43:30;9.90;99.90
24252;DHT22;12380;51.118;4.176;2023-04-25T08:45:59;10.40;99.90
24252;DHT22;12380;51.118;4.176;2023-04-25T09:00:43;11.30;99.90
24252;DHT22;12380;51.118;4.176;2023-04-25T09:03:10;11.50;99.90
24252;DHT22;12380;51.118;4.176;2023-04-25T09:05:36;11.80;99.90
24252;DHT22;12380;51.118;4.176;2023-04-25T09:14:11;13.20;99.90
24252;DHT22;12380;51.118;4.176;2023-04-25T09:16:54;13.70;99.90
24252;DHT22;12380;51.118;4.176;2023-04-25T09:19:43;13.80;99.90
24252;DHT22;12380;51.118;4.176;2023-04-25T09:22:10;14.10;99.90
24252;DHT22;12380;51.118;4.176;2023-04-25T09:24:46;14.10;99.90
24252;DHT22;12380;51.118;4.176;2023-04-25T09:27:20;13.60;99.90
24252;DHT22;12380;51.118;4.176;2023-04-25T09:29:48;12.90;99.90
24252;DHT22;12380;51.118;4.176;2023-04-25T09:32:19;12.60;99.90
24252;DHT22;12380;51.118;4.176;2023-04-25T09:34:52;12.30;99.90
24252;DHT22;12380;51.118;4.176;2023-04-25T09:37:27;11.80;99.90
24252;DHT22;12380;51.118;4.176;2023-04-25T09:39:59;11.60;99.90
24252;DHT22;12380;51.118;4.176;2023-04-25T09:42:28;11.40;99.90
24252;DHT22;12380;51.118;4.176;2023-04-25T09:44:55;11.90;99.90
24252;DHT22;12380;51.118;4.176;2023-04-25T09:47:21;12.20;99.90
24252;DHT22;12380;51.118;4.176;2023-04-25T09:49:51;12.30;99.90
24252;DHT22;12380;51.118;4.176;2023-04-25T09:54:43;12.60;99.90
24252;DHT22;12380;51.118;4.176;2023-04-25T09:57:19;12.30;99.90
24252;DHT22;12380;51.118;4.176;2023-04-25T09:59:48;11.70;99.90
24252;DHT22;12380;51.118;4.176;2023-04-25T10:02:15;11.60;99.90
24252;DHT22;12380;51.118;4.176;2023-04-25T10:04:44;11.20;99.90
24252;DHT22;12380;51.118;4.176;2023-04-25T10:07:11;10.80;99.90
24252;DHT22;12380;51.118;4.176;2023-04-25T10:09:38;10.70;99.90
24252;DHT22;12380;51.118;4.176;2023-04-25T10:12:07;10.70;99.90
24252;DHT22;12380;51.118;4.176;2023-04-25T10:14:33;10.50;99.90
24252;DHT22;12380;51.118;4.176;2023-04-25T10:16:59;10.70;99.90
24252;DHT22;12380;51.118;4.176;2023-04-25T10:19:25;10.60;99.90
24252;DHT22;12380;51.118;4.176;2023-04-25T10:21:56;10.50;99.90
24252;DHT22;12380;51.118;4.176;2023-04-25T10:24:23;10.50;99.90
24252;DHT22;12380;51.118;4.176;2023-04-25T10:26:50;10.40;99.90
24252;DHT22;12380;51.118;4.176;2023-04-25T10:29:25;10.50;99.90
24252;DHT22;12380;51.118;4.176;2023-04-25T10:31:51;10.60;99.90
24252;DHT22;12380;51.118;4.176;2023-04-25T10:34:17;10.80;99.90
24252;DHT22;12380;51.118;4.176;2023-04-25T10:36:46;10.90;99.90
24252;DHT22;12380;51.118;4.176;2023-04-25T10:39:19;11.10;99.90
24252;DHT22;12380;51.118;4.176;2023-04-25T10:41:53;11.50;99.90
24252;DHT22;12380;51.118;4.176;2023-04-25T10:44:20;11.70;99.90
24252;DHT22;12380;51.118;4.176;2023-04-25T10:46:45;12.00;99.90
24252;DHT22;12380;51.118;4.176;2023-04-25T10:49:27;12.50;99.90
24252;DHT22;12380;51.118;4.176;2023-04-25T10:51:58;12.80;99.90
24252;DHT22;12380;51.118;4.176;2023-04-25T10:54:39;12.80;99.90
24252;DHT22;12380;51.118;4.176;2023-04-25T10:57:05;13.00;99.90
24252;DHT22;12380;51.118;4.176;2023-04-25T10:59:31;13.20;99.90
24252;DHT22;12380;51.118;4.176;2023-04-25T11:01:59;13.40;99.90
24252;DHT22;12380;51.118;4.176;2023-04-25T11:04:25;13.80;99.90
24252;DHT22;12380;51.118;4.176;2023-04-25T11:09:35;15.30;99.90
24252;DHT22;12380;51.118;4.176;2023-04-25T11:12:01;15.30;99.90
24252;DHT22;12380;51.118;4.176;2023-04-25T11:14:29;14.70;99.90
24252;DHT22;12380;51.118;4.176;2023-04-25T11:16:57;13.70;99.90
24252;DHT22;12380;51.118;4.176;2023-04-25T11:19:24;14.20;99.90
24252;DHT22;12380;51.118;4.176;2023-04-25T11:21:49;15.10;99.90
24252;DHT22;12380;51.118;4.176;2023-04-25T11:24:18;15.50;99.90
24252;DHT22;12380;51.118;4.176;2023-04-25T11:26:46;15.90;99.90
24252;DHT22;12380;51.118;4.176;2023-04-25T11:29:12;15.40;99.90
24252;DHT22;12380;51.118;4.176;2023-04-25T11:31:38;15.30;99.90
24252;DHT22;12380;51.118;4.176;2023-04-25T11:34:04;15.40;99.90
24252;DHT22;12380;51.118;4.176;2023-04-25T11:36:29;16.20;99.90
24252;DHT22;12380;51.118;4.176;2023-04-25T11:38:56;17.50;99.90
24252;DHT22;12380;51.118;4.176;2023-04-25T11:41:21;17.50;99.90
24252;DHT22;12380;51.118;4.176;2023-04-25T11:43:47;16.80;99.90
24252;DHT22;12380;51.118;4.176;2023-04-25T11:46:15;15.60;99.90
24252;DHT22;12380;51.118;4.176;2023-04-25T11:48:41;15.00;99.90
24252;DHT22;12380;51.118;4.176;2023-04-25T11:51:07;14.40;99.90
24252;DHT22;12380;51.118;4.176;2023-04-25T11:53:33;14.20;99.90
24252;DHT22;12380;51.118;4.176;2023-04-25T11:55:59;14.50;99.90
24252;DHT22;12380;51.118;4.176;2023-04-25T11:58:25;14.80;99.90
24252;DHT22;12380;51.118;4.176;2023-04-25T12:00:51;14.50;99.90
24252;DHT22;12380;51.118;4.176;2023-04-25T12:03:17;14.40;99.90
24252;DHT22;12380;51.118;4.176;2023-04-25T12:05:42;14.90;99.90
24252;DHT22;12380;51.118;4.176;2023-04-25T12:08:12;15.50;99.90
24252;DHT22;12380;51.118;4.176;2023-04-25T12:10:40;15.20;99.90
24252;DHT22;12380;51.118;4.176;2023-04-25T12:15:44;16.00;99.90
24252;DHT22;12380;51.118;4.176;2023-04-25T12:18:09;15.60;99.90
24252;DHT22;12380;51.118;4.176;2023-04-25T12:20:35;16.00;99.90
24252;DHT22;12380;51.118;4.176;2023-04-25T12:23:01;16.60;99.90
24252;DHT22;12380;51.118;4.176;2023-04-25T12:25:37;16.60;99.90
24252;DHT22;12380;51.118;4.176;2023-04-25T12:28:16;17.20;99.90
24252;DHT22;12380;51.118;4.176;2023-04-25T12:33:26;18.00;99.90
24252;DHT22;12380;51.118;4.176;2023-04-25T12:35:53;17.90;99.90
24252;DHT22;12380;51.118;4.176;2023-04-25T12:38:22;17.50;99.90
24252;DHT22;12380;51.118;4.176;2023-04-25T12:40:47;16.80;99.90
24252;DHT22;12380;51.118;4.176;2023-04-25T12:43:13;15.80;99.90
24252;DHT22;12380;51.118;4.176;2023-04-25T12:45:38;15.10;99.90
24252;DHT22;12380;51.118;4.176;2023-04-25T12:48:06;14.60;99.90
24252;DHT22;12380;51.118;4.176;2023-04-25T12:50:32;14.40;99.90
24252;DHT22;12380;51.118;4.176;2023-04-25T12:52:57;14.00;99.90
24252;DHT22;12380;51.118;4.176;2023-04-25T12:55:23;13.60;99.90
24252;DHT22;12380;51.118;4.176;2023-04-25T12:57:49;14.10;99.90
24252;DHT22;12380;51.118;4.176;2023-04-25T13:00:14;15.10;99.90
24252;DHT22;12380;51.118;4.176;2023-04-25T13:02:43;14.90;99.90
24252;DHT22;12380;51.118;4.176;2023-04-25T13:05:08;15.30;99.90
24252;DHT22;12380;51.118;4.176;2023-04-25T13:07:34;14.70;99.90
24252;DHT22;12380;51.118;4.176;2023-04-25T13:10:00;14.60;99.90
24252;DHT22;12380;51.118;4.176;2023-04-25T13:12:27;14.90;99.90
24252;DHT22;12380;51.118;4.176;2023-04-25T13:14:55;14.70;99.90
24252;DHT22;12380;51.118;4.176;2023-04-25T13:17:21;15.20;99.90
24252;DHT22;12380;51.118;4.176;2023-04-25T13:19:49;15.80;99.90
24252;DHT22;12380;51.118;4.176;2023-04-25T13:22:14;16.40;99.90
24252;DHT22;12380;51.118;4.176;2023-04-25T13:24:42;17.20;99.90
24252;DHT22;12380;51.118;4.176;2023-04-25T13:27:07;16.20;99.90
24252;DHT22;12380;51.118;4.176;2023-04-25T13:29:33;15.80;99.90
24252;DHT22;12380;51.118;4.176;2023-04-25T13:32:01;15.50;99.90
24252;DHT22;12380;51.118;4.176;2023-04-25T13:34:29;15.80;99.90
24252;DHT22;12380;51.118;4.176;2023-04-25T13:36:54;16.20;99.90
24252;DHT22;12380;51.118;4.176;2023-04-25T13:39:20;15.30;99.90
24252;DHT22;12380;51.118;4.176;2023-04-25T13:41:45;15.10;99.90
24252;DHT22;12380;51.118;4.176;2023-04-25T13:44:11;14.80;99.90
24252;DHT22;12380;51.118;4.176;2023-04-25T13:46:36;15.30;99.90
24252;DHT22;12380;51.118;4.176;2023-04-25T13:49:03;15.30;99.90
24252;DHT22;12380;51.118;4.176;2023-04-25T13:51:28;15.30;99.90
24252;DHT22;12380;51.118;4.176;2023-04-25T13:53:54;15.70;99.90
24252;DHT22;12380;51.118;4.176;2023-04-25T13:56:19;15.90;99.90
24252;DHT22;12380;51.118;4.176;2023-04-25T13:58:45;15.50;99.90
24252;DHT22;12380;51.118;4.176;2023-04-25T14:01:11;15.30;99.90
24252;DHT22;12380;51.118;4.176;2023-04-25T14:03:39;16.00;99.90
24252;DHT22;12380;51.118;4.176;2023-04-25T14:06:05;15.70;99.90
24252;DHT22;12380;51.118;4.176;2023-04-25T14:08:30;14.90;99.90
24252;DHT22;12380;51.118;4.176;2023-04-25T14:10:56;14.80;99.90
24252;DHT22;12380;51.118;4.176;2023-04-25T14:13:21;14.30;99.90
24252;DHT22;12380;51.118;4.176;2023-04-25T14:15:51;15.30;99.90
24252;DHT22;12380;51.118;4.176;2023-04-25T14:18:16;15.70;99.90
24252;DHT22;12380;51.118;4.176;2023-04-25T14:20:42;16.10;99.90
24252;DHT22;12380;51.118;4.176;2023-04-25T14:23:08;16.00;99.90
24252;DHT22;12380;51.118;4.176;2023-04-25T14:25:35;15.20;99.90
24252;DHT22;12380;51.118;4.176;2023-04-25T14:28:01;14.90;99.90
24252;DHT22;12380;51.118;4.176;2023-04-25T14:30:27;14.30;99.90
24252;DHT22;12380;51.118;4.176;2023-04-25T14:32:53;14.00;99.90
24252;DHT22;12380;51.118;4.176;2023-04-25T14:35:18;13.80;99.90
24252;DHT22;12380;51.118;4.176;2023-04-25T14:37:47;13.50;99.90
24252;DHT22;12380;51.118;4.176;2023-04-25T14:40:14;13.70;99.90
24252;DHT22;12380;51.118;4.176;2023-04-25T14:42:42;14.00;99.90
24252;DHT22;12380;51.118;4.176;2023-04-25T14:45:07;14.30;99.90
24252;DHT22;12380;51.118;4.176;2023-04-25T14:47:36;13.90;99.90
24252;DHT22;12380;51.118;4.176;2023-04-25T14:50:02;13.40;99.90
24252;DHT22;12380;51.118;4.176;2023-04-25T14:52:27;13.50;99.90
24252;DHT22;12380;51.118;4.176;2023-04-25T14:54:56;13.70;99.90
24252;DHT22;12380;51.118;4.176;2023-04-25T14:57:24;13.90;99.90
24252;DHT22;12380;51.118;4.176;2023-04-25T14:59:54;13.90;99.90
24252;DHT22;12380;51.118;4.176;2023-04-25T15:02:19;14.20;99.90
24252;DHT22;12380;51.118;4.176;2023-04-25T15:04:45;14.20;99.90
24252;DHT22;12380;51.118;4.176;2023-04-25T15:07:11;14.60;99.90
24252;DHT22;12380;51.118;4.176;2023-04-25T15:09:37;14.60;99.90
24252;DHT22;12380;51.118;4.176;2023-04-25T15:12:05;15.00;99.90
24252;DHT22;12380;51.118;4.176;2023-04-25T15:14:30;15.40;99.90
24252;DHT22;12380;51.118;4.176;2023-04-25T15:16:56;15.60;99.90
24252;DHT22;12380;51.118;4.176;2023-04-25T15:19:21;15.70;99.90
24252;DHT22;12380;51.118;4.176;2023-04-25T15:21:47;15.80;99.90
24252;DHT22;12380;51.118;4.176;2023-04-25T15:24:13;15.60;99.90
24252;DHT22;12380;51.118;4.176;2023-04-25T15:26:40;15.00;99.90
24252;DHT22;12380;51.118;4.176;2023-04-25T15:29:05;15.20;99.90
24252;DHT22;12380;51.118;4.176;2023-04-25T15:31:31;15.50;99.90
24252;DHT22;12380;51.118;4.176;2023-04-25T15:33:59;15.60;99.90
24252;DHT22;12380;51.118;4.176;2023-04-25T15:36:27;15.50;99.90
24252;DHT22;12380;51.118;4.176;2023-04-25T15:38:53;15.60;99.90
24252;DHT22;12380;51.118;4.176;2023-04-25T15:41:18;15.80;99.90
24252;DHT22;12380;51.118;4.176;2023-04-25T15:43:45;16.10;99.90
24252;DHT22;12380;51.118;4.176;2023-04-25T15:46:11;15.90;99.90
24252;DHT22;12380;51.118;4.176;2023-04-25T15:48:37;15.90;99.90
24252;DHT22;12380;51.118;4.176;2023-04-25T15:51:03;14.70;99.90
24252;DHT22;12380;51.118;4.176;2023-04-25T15:53:28;14.60;99.90
24252;DHT22;12380;51.118;4.176;2023-04-25T15:55:54;14.80;99.90
24252;DHT22;12380;51.118;4.176;2023-04-25T15:58:19;14.90;99.90
24252;DHT22;12380;51.118;4.176;2023-04-25T16:00:45;15.20;99.90
24252;DHT22;12380;51.118;4.176;2023-04-25T16:03:13;15.30;99.90